createdAt,value
2024-04-10T00:00:11.370Z,83.18021065153864
2024-04-10T00:03:52.492Z,83.31227108823626
2024-04-10T00:07:25.193Z,83.6064136021957
2024-04-10T00:11:13.747Z,83.86380722338214
2024-04-10T00:15:46.282Z,84.22322188865603
2024-04-10T00:19:29.189Z,84.00966609397268
2024-04-10T00:22:53.727Z,83.99502993830143
2024-04-10T00:26:21.848Z,83.7042421167084
2024-04-10T00:29:56.179Z,83.4136814778583
2024-04-10T00:34:18.311Z,83.18008659363429
2024-04-10T00:38:03.296Z,82.64236084829606
2024-04-10T00:41:32.380Z,82.66933764003781
2024-04-10T00:45:00.128Z,82.94340572068634
2024-04-10T00:48:29.642Z,82.8663301555783
2024-04-10T00:51:58.543Z,82.68712598060718
2024-04-10T00:55:22.248Z,82.4034767594422
2024-04-10T00:58:45.999Z,82.36031062527191
2024-04-10T01:02:12.638Z,82.33737760875992
2024-04-10T01:05:48.466Z,82.40869596484312
2024-04-10T01:09:14.897Z,81.891192387686
2024-04-10T01:12:54.032Z,81.51124352625297
2024-04-10T01:16:24.358Z,81.59814702972591
2024-04-10T01:19:49.668Z,81.08828427895179
2024-04-10T01:23:16.396Z,81.06125559456778
2024-04-10T01:26:44.059Z,80.98112157350504
2024-04-10T01:30:10.661Z,80.86736013287418
2024-04-10T01:33:47.475Z,81.05908569403016
2024-04-10T01:37:21.604Z,80.58193763509064
2024-04-10T01:45:24.329Z,80.2127268302222
2024-04-10T01:50:25.575Z,80.0241420920839
2024-04-10T01:54:03.564Z,79.81668354047584
2024-04-10T01:57:42.782Z,79.13533109038009
2024-04-10T02:04:02.064Z,78.16491895506537
2024-04-10T02:07:31.169Z,78.11697037369252
2024-04-10T02:11:04.776Z,78.4108908986163
2024-04-10T02:14:48.554Z,78.54396985669419
2024-04-10T02:18:15.723Z,78.34848512010385
2024-04-10T02:27:45.743Z,78.16129665587775
2024-04-10T02:31:13.531Z,78.60527180228307
2024-04-10T02:35:12.831Z,78.63616650094455
2024-04-10T02:39:00.066Z,78.86565091961856
2024-04-10T02:42:28.763Z,79.51719226029365
2024-04-10T02:46:14.812Z,80.45287823874658
2024-04-10T02:49:44.913Z,81.16681198622784
2024-04-10T02:53:12.311Z,81.34622118033317
2024-04-10T02:56:45.557Z,81.97956093421949
2024-04-10T03:00:44.660Z,81.61889399104679
2024-04-10T03:04:15.798Z,81.1846973596841
2024-04-10T03:07:45.450Z,81.66215308605837
2024-04-10T03:11:12.150Z,81.55290169455687
2024-04-10T03:14:41.854Z,81.53781741907713
2024-04-10T03:18:09.199Z,81.64430987869649
2024-04-10T03:21:33.539Z,81.67517894041656
2024-04-10T03:25:01.065Z,82.09840103930951
2024-04-10T03:28:31.982Z,82.14209844202249
2024-04-10T03:31:58.094Z,82.49211096487852
2024-04-10T03:35:24.372Z,82.3979141307839
2024-04-10T03:39:50.452Z,82.5198496083166
2024-04-10T03:43:28.213Z,82.66931639089839
2024-04-10T03:46:51.762Z,82.63798855770342
2024-04-10T03:50:19.541Z,82.95308945092356
2024-04-10T03:53:45.455Z,82.70336164099913
2024-04-10T03:57:14.171Z,82.69451878510169
2024-04-10T04:05:56.034Z,82.86351565700927
2024-04-10T04:09:25.231Z,82.73914469203174
2024-04-10T04:13:01.873Z,82.43823581091553
2024-04-10T04:16:32.031Z,82.84966757981314
2024-04-10T04:19:57.633Z,82.58067336548972
2024-04-10T04:25:07.962Z,82.12996286568551
2024-04-10T04:28:43.827Z,82.3575802425961
2024-04-10T04:32:09.518Z,82.876687536452
2024-04-10T04:38:08.688Z,82.88521662052328
2024-04-10T04:41:40.440Z,82.64510892384276
2024-04-10T04:45:12.329Z,83.09559437286833
2024-04-10T04:48:39.843Z,83.56722386109998
2024-04-10T04:52:07.338Z,84.23594722056498
2024-04-10T04:55:49.826Z,84.6096086152768
2024-04-10T04:59:21.102Z,84.96477672583767
2024-04-10T05:02:53.445Z,85.64450884688648
2024-04-10T05:06:36.530Z,86.69218961445944
2024-04-10T05:10:06.609Z,87.48289003073607
2024-04-10T05:13:38.484Z,87.12218644516389
2024-04-10T05:17:04.357Z,87.60581675096519
2024-04-10T05:20:32.851Z,87.56310278400903
2024-04-10T05:24:04.388Z,87.85451943411296
2024-04-10T05:27:34.224Z,88.10872800243102
2024-04-10T05:30:59.298Z,87.67612958138956
2024-04-10T05:34:40.442Z,87.21594472069567
2024-04-10T05:38:04.090Z,87.04368495677049
2024-04-10T05:46:05.544Z,86.85377784874885
2024-04-10T05:49:31.722Z,86.94844284692897
2024-04-10T05:52:53.467Z,86.65164424680493
2024-04-10T05:56:16.887Z,86.56940615437067
2024-04-10T05:59:55.169Z,85.21977969514212
2024-04-10T06:03:20.857Z,85.07218749554708
2024-04-10T06:06:52.409Z,83.44288655465512
2024-04-10T06:18:58.825Z,82.84710101366133
2024-04-10T06:22:23.920Z,82.40097964887185
2024-04-10T06:25:54.456Z,83.65154230665227
2024-04-10T06:29:18.168Z,83.88637470202215
2024-04-10T06:32:43.303Z,83.47435194596986
2024-04-10T06:36:05.854Z,82.40179520045864
2024-04-10T06:39:34.138Z,82.31712007883718
2024-04-10T06:42:58.122Z,82.30939930413707
2024-04-10T06:46:23.464Z,81.44406094771142
2024-04-10T06:49:51.474Z,79.51231246700593
2024-04-10T06:53:32.546Z,78.25649505157799
2024-04-10T06:57:07.892Z,77.60478567082572
2024-04-10T07:03:18.503Z,76.98878789095042
2024-04-10T07:06:54.583Z,76.05400376857617
2024-04-10T07:10:53.472Z,74.37975047335492
2024-04-10T07:14:33.137Z,73.56786770151584
2024-04-10T07:22:05.838Z,71.59561157797901
2024-04-10T07:25:55.650Z,72.34785960263933
2024-04-10T07:29:26.206Z,72.41509081713329
2024-04-10T07:32:57.048Z,72.2020173549318
2024-04-10T07:36:27.994Z,72.07244085083255
2024-04-10T07:39:52.948Z,71.89802797555602
2024-04-10T07:43:21.882Z,70.76105143632287
2024-04-10T07:49:23.230Z,71.13998984669202
2024-04-10T07:52:49.833Z,71.8070157657633
2024-04-10T07:56:15.841Z,70.49312550546534
2024-04-10T07:59:42.453Z,70.82219000769683
2024-04-10T08:03:12.132Z,70.48819460922347
2024-04-10T08:06:45.136Z,69.5232793596628
2024-04-10T08:13:25.470Z,71.33786157761796
2024-04-10T08:16:47.003Z,71.28331994178748
2024-04-10T08:20:11.424Z,71.22556295094175
2024-04-10T08:23:44.562Z,71.345812078024
2024-04-10T08:27:08.373Z,69.42147361431178
2024-04-10T08:30:34.577Z,68.64143097323512
2024-04-10T08:34:04.490Z,67.82322856640552
2024-04-10T08:37:30.752Z,66.29260009429187
2024-04-10T08:40:56.856Z,66.97752996362091
2024-04-10T08:47:27.724Z,67.41507058127459
2024-04-10T08:53:54.384Z,64.11169586012032
2024-04-10T08:57:21.207Z,63.84712168305255
2024-04-10T09:00:47.118Z,58.79210959843413
2024-04-10T09:04:09.903Z,56.903277745796196
2024-04-10T09:07:35.086Z,56.869104874596424
2024-04-10T09:10:59.418Z,56.382029436137806
2024-04-10T09:16:30.495Z,54.47810369658481
2024-04-10T09:19:53.064Z,55.138731132109854
2024-04-10T09:23:15.253Z,56.641099659259005
2024-04-10T09:26:39.226Z,56.38317525532134
2024-04-10T09:30:07.500Z,56.54949936389424
2024-04-10T09:33:30.840Z,58.86294174559594
2024-04-10T09:36:54.386Z,59.316779598321816
2024-04-10T09:49:09.277Z,58.54656061089167
2024-04-10T09:52:35.602Z,58.50594301875901
2024-04-10T09:56:00.203Z,58.78011075921772
2024-04-10T09:59:23.971Z,58.32934878650448
2024-04-10T10:02:48.677Z,59.407408061598225
2024-04-10T10:06:10.378Z,59.11852439835792
2024-04-10T10:09:36.648Z,57.748597555649866
2024-04-10T10:12:59.537Z,55.61509519220761
2024-04-10T10:16:23.426Z,52.869392549633794
2024-04-10T10:23:12.933Z,54.53546107941784
2024-04-10T10:26:39.426Z,51.92743682920704
2024-04-10T10:32:51.216Z,51.65610058092535
2024-04-10T10:36:21.267Z,50.640651882026134
2024-04-10T10:39:45.984Z,52.31944751631491
2024-04-10T10:43:11.665Z,51.871564609081865
2024-04-10T10:46:34.884Z,50.73066461303392
2024-04-10T10:50:04.789Z,50.87220356301723
2024-04-10T10:53:35.363Z,49.423251812109775
2024-04-10T10:57:02.783Z,50.09662127121131
2024-04-10T11:00:34.081Z,51.23671086832068
2024-04-10T11:04:06.194Z,52.48129687154308
2024-04-10T11:07:27.688Z,52.67409224229017
2024-04-10T11:10:48.887Z,53.332084276056506
2024-04-10T11:16:19.052Z,55.00193912712129
2024-04-10T11:19:51.012Z,54.339654423257706
2024-04-10T11:23:15.354Z,52.18090574307804
2024-04-10T11:29:28.749Z,52.199318195491585
2024-04-10T11:32:54.229Z,52.15187834180468
2024-04-10T11:36:25.716Z,52.5161267359508
2024-04-10T11:39:51.114Z,53.35290010644336
2024-04-10T11:43:21.323Z,53.75559410400111
2024-04-10T11:46:49.747Z,53.58164006830092
2024-04-10T11:54:44.161Z,52.06308671953271
2024-04-10T11:58:10.682Z,53.10667929304954
2024-04-10T12:01:35.739Z,52.73153471886479
2024-04-10T12:05:11.554Z,53.05468579007409
2024-04-10T12:08:42.683Z,52.460548674546004
2024-04-10T12:12:15.758Z,51.69286658590268
2024-04-10T12:15:48.778Z,53.08901152720028
2024-04-10T12:19:29.037Z,52.415706519056656
2024-04-10T12:23:10.577Z,51.706555282079314
2024-04-10T12:26:52.557Z,52.07265132646441
2024-04-10T12:33:56.826Z,51.99423256289535
2024-04-10T12:37:31.951Z,50.99259831552908
2024-04-10T12:41:10.927Z,50.8982935107576
2024-04-10T12:44:51.067Z,51.171381587231615
2024-04-10T12:48:57.805Z,51.16846768799353
2024-04-10T12:52:41.240Z,52.41803670191774
2024-04-10T12:56:18.131Z,52.038388298561955
2024-04-10T12:59:53.125Z,52.35519244532545
2024-04-10T13:03:26.177Z,52.19393257943083
2024-04-10T13:06:55.614Z,52.4195975306339
2024-04-10T13:11:02.184Z,52.09312186519372
2024-04-10T13:14:36.397Z,52.41712855845088
2024-04-10T13:18:06.495Z,52.89396478734471
2024-04-10T13:21:33.367Z,52.18905904711855
2024-04-10T13:25:10.344Z,53.094462905161194
2024-04-10T13:28:49.551Z,53.69644910640591
2024-04-10T13:32:21.273Z,54.630525829425736
2024-04-10T13:35:49.170Z,54.307070507667866
2024-04-10T13:39:18.180Z,55.17927117940108
2024-04-10T13:42:48.335Z,53.57474677949174
2024-04-10T13:46:17.197Z,53.274457356761474
2024-04-10T13:49:40.792Z,53.871774287789336
2024-04-10T13:53:05.107Z,54.0759393745887
2024-04-10T13:57:15.244Z,53.799237803412815
2024-04-10T14:00:42.339Z,52.1344554396912
2024-04-10T14:07:13.666Z,50.33155586078659
2024-04-10T14:10:56.636Z,50.21031136281674
2024-04-10T14:14:39.068Z,51.70744787675165
2024-04-10T14:18:05.287Z,52.37758638196231
2024-04-10T14:21:34.013Z,50.8920825631984
2024-04-10T14:25:06.298Z,52.45842701693407
2024-04-10T14:28:40.950Z,53.23237244689074
2024-04-10T14:32:10.047Z,53.12272720671548
2024-04-10T14:35:40.460Z,53.406832771885234
2024-04-10T14:39:14.483Z,53.29666463275137
2024-04-10T14:42:50.752Z,52.198331452932074
2024-04-10T14:48:45.934Z,51.435000318801315
2024-04-10T14:52:10.281Z,50.00697804951404
2024-04-10T14:56:10.228Z,49.378887054253006
2024-04-10T14:59:45.098Z,50.23502719582355
2024-04-10T15:03:15.996Z,50.20362429219962
2024-04-10T15:06:43.526Z,50.03786079666953
2024-04-10T15:10:12.169Z,50.20844394697854
2024-04-10T15:16:01.143Z,50.618334941172634
2024-04-10T15:22:37.136Z,51.2494846675046
2024-04-10T15:26:01.200Z,52.52251448071744
2024-04-10T15:29:25.494Z,52.150552435185396
2024-04-10T15:32:52.970Z,51.78605303641753
2024-04-10T15:36:27.082Z,51.78430436495713
2024-04-10T15:41:07.776Z,50.90756319010475
2024-04-10T15:46:11.165Z,49.34750903222693
2024-04-10T15:49:34.892Z,48.89999081680749
2024-04-10T15:52:56.049Z,49.21308209788339
2024-04-10T15:56:20.237Z,50.33774583744505
2024-04-10T15:59:42.509Z,51.52401466175627
2024-04-10T16:03:06.201Z,52.06542460929519
2024-04-10T16:06:33.935Z,52.20830211886575
2024-04-10T16:10:02.636Z,52.663758584011944
2024-04-10T16:13:31.994Z,52.40874481267805
2024-04-10T16:17:08.217Z,51.923788985459105
2024-04-10T16:22:49.621Z,52.070514710782014
2024-04-10T16:26:12.678Z,52.265651519063816
2024-04-10T16:29:42.628Z,51.279864607370456
2024-04-10T16:33:08.257Z,51.53867638684692
2024-04-10T16:36:37.002Z,51.42488986228369
2024-04-10T16:40:01.240Z,52.534088873162474
2024-04-10T16:45:03.733Z,54.03890607432028
2024-04-10T16:48:33.520Z,53.954047897648856
2024-04-10T16:52:12.473Z,54.518946722773805
2024-04-10T16:55:40.068Z,54.411109823723955
2024-04-10T17:01:48.135Z,55.45150966214293
2024-04-10T17:05:17.097Z,56.149561662469864
2024-04-10T17:08:40.512Z,57.12536657793485
2024-04-10T17:12:05.502Z,57.56384451206417
2024-04-10T17:15:32.685Z,57.67150169901694
2024-04-10T17:19:04.433Z,57.41212810630617
2024-04-10T17:22:27.670Z,58.03384079126964
2024-04-10T17:25:50.366Z,58.1483012944555
2024-04-10T17:29:21.615Z,58.7482556603156
2024-04-10T17:32:46.102Z,59.49865163376998
2024-04-10T17:36:08.768Z,59.0622102834801
2024-04-10T17:48:07.941Z,59.17359605499001
2024-04-10T18:00:08.097Z,59.44634827545069
2024-04-10T18:05:20.682Z,60.43902042479725
2024-04-10T18:08:43.794Z,60.80458556956886
2024-04-10T18:12:07.671Z,61.21571923585422
2024-04-10T18:15:31.919Z,61.64485322505449
2024-04-10T18:19:02.276Z,62.1330367608777
2024-04-10T18:22:29.146Z,62.41989978987304
2024-04-10T18:25:54.975Z,62.462522303264905
2024-04-10T18:31:54.590Z,62.78708628565644
2024-04-10T18:35:21.894Z,62.86818811829109
2024-04-10T18:38:48.014Z,63.57617102091304
2024-04-10T18:42:12.448Z,64.03712523429239
2024-04-10T18:45:38.360Z,64.15543514074237
2024-04-10T18:49:04.747Z,64.28725671485915
2024-04-10T18:53:51.847Z,65.06706331851838
2024-04-10T18:57:16.897Z,65.26326596678449
2024-04-10T19:00:44.445Z,65.53873014178953
2024-04-10T19:04:07.405Z,65.20388060816926
2024-04-10T19:08:00.534Z,65.19527681364639
2024-04-10T19:11:24.454Z,65.36329149145064
2024-04-10T19:14:48.231Z,65.56336840820975
2024-04-10T19:18:12.600Z,65.88690234034947
2024-04-10T19:21:36.919Z,65.87340693949031
2024-04-10T19:24:59.527Z,66.02440139963464
2024-04-10T19:28:23.304Z,66.19378186446622
2024-04-10T19:31:52.340Z,66.46197223493357
2024-04-10T19:35:19.509Z,66.4985425808521
2024-04-10T19:38:44.618Z,66.55232149694214
2024-04-10T19:42:09.680Z,66.33845804050499
2024-04-10T19:45:32.547Z,66.96735201823552
2024-04-10T19:48:57.434Z,67.12625456994591
2024-04-10T19:56:39.776Z,67.63969661815017
2024-04-10T20:01:08.245Z,68.04109788550943
2024-04-10T20:04:32.458Z,68.06661677719832
2024-04-10T20:07:57.041Z,68.46265763625364
2024-04-10T20:11:26.026Z,68.70700197182119
2024-04-10T20:14:55.296Z,68.67788499072394
2024-04-10T20:18:19.584Z,68.66859397000107
2024-04-10T20:25:30.944Z,68.43986635352083
2024-04-10T20:28:53.205Z,68.45720754132495
2024-04-10T20:32:16.386Z,68.50184093839299
2024-04-10T20:35:39.302Z,68.98599693791455
2024-04-10T20:39:02.307Z,69.08621143797005
2024-04-10T20:42:29.442Z,69.05771320964017
2024-04-10T20:49:23.673Z,69.31694990709487
2024-04-10T20:52:50.441Z,69.39171130776546
2024-04-10T20:56:22.822Z,69.76034336964148
2024-04-10T21:08:23.087Z,70.15168965494081
2024-04-10T21:11:48.022Z,70.00552360263704
2024-04-10T21:15:11.822Z,70.54563066307982
2024-04-10T21:18:37.291Z,71.1273584185108
2024-04-10T21:25:17.451Z,72.35088154319902
2024-04-10T21:28:47.683Z,72.24271876583627
2024-04-10T21:32:26.944Z,72.02999646900818
2024-04-10T21:35:54.834Z,72.15744574459761
2024-04-10T21:39:25.349Z,72.39436247966668
2024-04-10T21:44:41.451Z,72.78489878441572
2024-04-10T21:48:07.570Z,72.69328338846398
2024-04-10T21:54:25.770Z,72.94624441393141
2024-04-10T21:57:51.551Z,73.13312024037505
2024-04-10T22:03:30.013Z,73.401755202178
2024-04-10T22:09:51.456Z,73.15151052927064
2024-04-10T22:13:14.492Z,73.60328903625626
2024-04-10T22:16:46.955Z,74.03113497735372
2024-04-10T22:20:18.227Z,74.30316647304441
2024-04-10T22:23:46.576Z,74.34074498284275
2024-04-10T22:27:18.535Z,74.36576951005259
2024-04-10T22:30:45.476Z,74.37981682929545
2024-04-10T22:34:15.030Z,74.34681603756856
2024-04-10T22:37:44.595Z,74.47084628689268
2024-04-10T22:41:11.536Z,74.95392757177369
2024-04-10T22:44:37.862Z,75.08151323121106
2024-04-10T22:48:01.234Z,75.44672361406755
2024-04-10T22:51:27.709Z,75.28710426051505
2024-04-10T22:54:53.292Z,75.50807049378612
2024-04-10T22:58:16.935Z,75.32590234699624
2024-04-10T23:01:43.234Z,75.33320596535842
2024-04-10T23:05:22.588Z,75.51515516451083
2024-04-10T23:09:11.695Z,75.35874198281098
2024-04-10T23:12:36.036Z,75.32068297518279
2024-04-10T23:16:01.526Z,75.4999375136764
2024-04-10T23:19:27.456Z,75.11764368796915
2024-04-10T23:22:58.198Z,75.56402716203563
2024-04-10T23:26:26.527Z,75.60309828851476
2024-04-10T23:30:04.316Z,75.62544194762442
2024-04-10T23:33:33.428Z,75.64598878053043
2024-04-10T23:38:44.547Z,75.20753707395244
2024-04-10T23:42:18.192Z,75.34680681747503
2024-04-10T23:45:49.495Z,74.89108408615333
2024-04-10T23:49:16.368Z,75.26132640149702
2024-04-10T23:52:59.982Z,75.07753298882095
2024-04-10T23:57:06.655Z,74.89972360894326
